sensor_id;sensor_type;location;lat;lon;timestamp;P1;durP1;ratioP1;P2;durP2;ratioP2
46322;SDS011;32044;52.386;13.278;2022-07-29T00:02:04;6.28;;;3.03;;
46322;SDS011;32044;52.386;13.278;2022-07-29T00:04:29;7.80;;;3.33;;
46322;SDS011;32044;52.386;13.278;2022-07-29T00:06:55;5.93;;;2.90;;
46322;SDS011;32044;52.386;13.278;2022-07-29T00:09:20;7.30;;;2.83;;
46322;SDS011;32044;52.386;13.278;2022-07-29T00:11:45;6.28;;;2.88;;
46322;SDS011;32044;52.386;13.278;2022-07-29T00:14:11;6.07;;;3.20;;
46322;SDS011;32044;52.386;13.278;2022-07-29T00:16:36;7.25;;;3.03;;
46322;SDS011;32044;52.386;13.278;2022-07-29T00:19:01;7.32;;;3.33;;
46322;SDS011;32044;52.386;13.278;2022-07-29T00:21:27;7.40;;;2.60;;
46322;SDS011;32044;52.386;13.278;2022-07-29T00:23:52;8.88;;;2.83;;
46322;SDS011;32044;52.386;13.278;2022-07-29T00:26:18;6.72;;;3.63;;
46322;SDS011;32044;52.386;13.278;2022-07-29T00:28:43;6.25;;;3.47;;
46322;SDS011;32044;52.386;13.278;2022-07-29T00:31:08;7.07;;;3.45;;
46322;SDS011;32044;52.386;13.278;2022-07-29T00:33:33;7.07;;;3.22;;
46322;SDS011;32044;52.386;13.278;2022-07-29T00:35:59;5.18;;;3.22;;
46322;SDS011;32044;52.386;13.278;2022-07-29T00:38:24;8.98;;;4.40;;
46322;SDS011;32044;52.386;13.278;2022-07-29T00:40:49;8.32;;;3.33;;
46322;SDS011;32044;52.386;13.278;2022-07-29T00:43:15;6.80;;;4.03;;
46322;SDS011;32044;52.386;13.278;2022-07-29T00:45:42;9.20;;;3.00;;
46322;SDS011;32044;52.386;13.278;2022-07-29T00:48:07;6.47;;;3.55;;
46322;SDS011;32044;52.386;13.278;2022-07-29T00:50:33;6.97;;;3.22;;
46322;SDS011;32044;52.386;13.278;2022-07-29T00:52:59;5.82;;;3.33;;
46322;SDS011;32044;52.386;13.278;2022-07-29T00:55:25;6.43;;;3.60;;
46322;SDS011;32044;52.386;13.278;2022-07-29T00:57:50;11.30;;;3.72;;
46322;SDS011;32044;52.386;13.278;2022-07-29T01:00:17;13.13;;;3.90;;
46322;SDS011;32044;52.386;13.278;2022-07-29T01:02:45;6.30;;;3.45;;
46322;SDS011;32044;52.386;13.278;2022-07-29T01:05:13;11.40;;;4.18;;
46322;SDS011;32044;52.386;13.278;2022-07-29T01:07:39;7.18;;;3.58;;
46322;SDS011;32044;52.386;13.278;2022-07-29T01:10:04;7.72;;;3.90;;
46322;SDS011;32044;52.386;13.278;2022-07-29T01:12:31;8.00;;;3.85;;
46322;SDS011;32044;52.386;13.278;2022-07-29T01:14:58;5.80;;;3.30;;
46322;SDS011;32044;52.386;13.278;2022-07-29T01:22:53;8.32;;;4.05;;
46322;SDS011;32044;52.386;13.278;2022-07-29T01:31:19;10.88;;;3.90;;
46322;SDS011;32044;52.386;13.278;2022-07-29T01:33:48;6.25;;;4.07;;
46322;SDS011;32044;52.386;13.278;2022-07-29T01:36:40;8.82;;;3.67;;
46322;SDS011;32044;52.386;13.278;2022-07-29T01:39:18;7.00;;;4.00;;
46322;SDS011;32044;52.386;13.278;2022-07-29T01:41:56;9.10;;;4.00;;
46322;SDS011;32044;52.386;13.278;2022-07-29T01:47:22;9.52;;;4.13;;
46322;SDS011;32044;52.386;13.278;2022-07-29T01:49:50;9.85;;;4.10;;
46322;SDS011;32044;52.386;13.278;2022-07-29T01:52:21;7.65;;;4.05;;
46322;SDS011;32044;52.386;13.278;2022-07-29T01:54:54;8.85;;;3.88;;
46322;SDS011;32044;52.386;13.278;2022-07-29T01:57:21;8.45;;;4.05;;
46322;SDS011;32044;52.386;13.278;2022-07-29T01:59:50;7.18;;;3.78;;
46322;SDS011;32044;52.386;13.278;2022-07-29T02:02:16;8.00;;;4.40;;
46322;SDS011;32044;52.386;13.278;2022-07-29T02:04:43;9.18;;;3.60;;
46322;SDS011;32044;52.386;13.278;2022-07-29T02:07:13;9.95;;;4.18;;
46322;SDS011;32044;52.386;13.278;2022-07-29T02:09:42;9.20;;;4.43;;
46322;SDS011;32044;52.386;13.278;2022-07-29T02:12:08;9.30;;;4.40;;
46322;SDS011;32044;52.386;13.278;2022-07-29T02:14:36;10.73;;;4.10;;
46322;SDS011;32044;52.386;13.278;2022-07-29T02:17:03;9.40;;;3.88;;
46322;SDS011;32044;52.386;13.278;2022-07-29T02:19:29;7.53;;;3.65;;
46322;SDS011;32044;52.386;13.278;2022-07-29T02:21:57;6.47;;;4.10;;
46322;SDS011;32044;52.386;13.278;2022-07-29T02:24:24;9.02;;;4.15;;
46322;SDS011;32044;52.386;13.278;2022-07-29T02:26:50;5.10;;;3.65;;
46322;SDS011;32044;52.386;13.278;2022-07-29T02:29:16;9.52;;;4.45;;
46322;SDS011;32044;52.386;13.278;2022-07-29T02:31:45;10.85;;;4.15;;
46322;SDS011;32044;52.386;13.278;2022-07-29T02:34:12;13.55;;;4.07;;
46322;SDS011;32044;52.386;13.278;2022-07-29T02:36:38;8.50;;;4.28;;
46322;SDS011;32044;52.386;13.278;2022-07-29T02:39:04;9.90;;;4.20;;
46322;SDS011;32044;52.386;13.278;2022-07-29T02:41:31;7.82;;;4.05;;
46322;SDS011;32044;52.386;13.278;2022-07-29T02:44:05;7.63;;;3.90;;
46322;SDS011;32044;52.386;13.278;2022-07-29T02:46:35;5.32;;;3.97;;
46322;SDS011;32044;52.386;13.278;2022-07-29T02:51:46;9.68;;;4.25;;
46322;SDS011;32044;52.386;13.278;2022-07-29T02:54:26;7.50;;;3.83;;
46322;SDS011;32044;52.386;13.278;2022-07-29T02:56:58;7.65;;;3.70;;
46322;SDS011;32044;52.386;13.278;2022-07-29T02:59:25;9.77;;;4.18;;
46322;SDS011;32044;52.386;13.278;2022-07-29T03:01:52;8.02;;;3.97;;
46322;SDS011;32044;52.386;13.278;2022-07-29T03:04:17;10.23;;;4.05;;
46322;SDS011;32044;52.386;13.278;2022-07-29T03:06:44;8.13;;;3.72;;
46322;SDS011;32044;52.386;13.278;2022-07-29T03:09:10;6.20;;;3.72;;
46322;SDS011;32044;52.386;13.278;2022-07-29T03:11:35;8.73;;;3.92;;
46322;SDS011;32044;52.386;13.278;2022-07-29T03:14:01;7.78;;;4.15;;
46322;SDS011;32044;52.386;13.278;2022-07-29T03:16:27;8.85;;;4.30;;
46322;SDS011;32044;52.386;13.278;2022-07-29T03:18:53;10.52;;;4.18;;
46322;SDS011;32044;52.386;13.278;2022-07-29T03:21:19;9.55;;;4.15;;
46322;SDS011;32044;52.386;13.278;2022-07-29T03:23:44;7.25;;;4.07;;
46322;SDS011;32044;52.386;13.278;2022-07-29T03:26:10;7.18;;;3.78;;
46322;SDS011;32044;52.386;13.278;2022-07-29T03:28:36;8.52;;;4.80;;
46322;SDS011;32044;52.386;13.278;2022-07-29T03:31:01;8.23;;;3.63;;
46322;SDS011;32044;52.386;13.278;2022-07-29T03:33:26;7.78;;;3.78;;
46322;SDS011;32044;52.386;13.278;2022-07-29T03:35:53;10.50;;;4.18;;
46322;SDS011;32044;52.386;13.278;2022-07-29T03:38:19;10.50;;;4.53;;
46322;SDS011;32044;52.386;13.278;2022-07-29T03:40:49;8.07;;;3.92;;
46322;SDS011;32044;52.386;13.278;2022-07-29T03:43:18;7.85;;;3.75;;
46322;SDS011;32044;52.386;13.278;2022-07-29T03:45:45;8.93;;;4.15;;
46322;SDS011;32044;52.386;13.278;2022-07-29T03:48:14;8.43;;;3.90;;
46322;SDS011;32044;52.386;13.278;2022-07-29T03:50:40;12.82;;;4.72;;
46322;SDS011;32044;52.386;13.278;2022-07-29T03:53:06;9.95;;;4.20;;
46322;SDS011;32044;52.386;13.278;2022-07-29T03:55:32;7.85;;;4.70;;
46322;SDS011;32044;52.386;13.278;2022-07-29T03:58:01;6.63;;;4.13;;
46322;SDS011;32044;52.386;13.278;2022-07-29T04:00:27;8.82;;;4.13;;
46322;SDS011;32044;52.386;13.278;2022-07-29T04:02:52;7.50;;;3.35;;
46322;SDS011;32044;52.386;13.278;2022-07-29T04:05:18;8.68;;;4.57;;
46322;SDS011;32044;52.386;13.278;2022-07-29T04:07:44;6.72;;;3.80;;
46322;SDS011;32044;52.386;13.278;2022-07-29T04:10:10;8.55;;;3.95;;
46322;SDS011;32044;52.386;13.278;2022-07-29T04:12:35;7.78;;;4.07;;
46322;SDS011;32044;52.386;13.278;2022-07-29T04:15:02;7.40;;;3.50;;
46322;SDS011;32044;52.386;13.278;2022-07-29T04:17:28;10.05;;;4.00;;
46322;SDS011;32044;52.386;13.278;2022-07-29T04:19:53;8.25;;;4.40;;
46322;SDS011;32044;52.386;13.278;2022-07-29T04:22:18;8.50;;;3.88;;
46322;SDS011;32044;52.386;13.278;2022-07-29T04:24:44;7.07;;;3.80;;
46322;SDS011;32044;52.386;13.278;2022-07-29T04:27:09;9.00;;;3.58;;
46322;SDS011;32044;52.386;13.278;2022-07-29T04:29:34;7.50;;;4.00;;
46322;SDS011;32044;52.386;13.278;2022-07-29T04:32:00;8.63;;;3.75;;
46322;SDS011;32044;52.386;13.278;2022-07-29T04:34:25;12.55;;;4.32;;
46322;SDS011;32044;52.386;13.278;2022-07-29T04:36:50;9.50;;;4.30;;
46322;SDS011;32044;52.386;13.278;2022-07-29T04:39:16;8.88;;;4.18;;
46322;SDS011;32044;52.386;13.278;2022-07-29T04:41:43;11.32;;;4.13;;
46322;SDS011;32044;52.386;13.278;2022-07-29T04:44:08;8.48;;;3.80;;
46322;SDS011;32044;52.386;13.278;2022-07-29T04:46:33;6.55;;;3.78;;
46322;SDS011;32044;52.386;13.278;2022-07-29T04:48:59;7.15;;;3.53;;
46322;SDS011;32044;52.386;13.278;2022-07-29T04:51:24;9.05;;;4.05;;
46322;SDS011;32044;52.386;13.278;2022-07-29T04:53:50;7.30;;;3.47;;
46322;SDS011;32044;52.386;13.278;2022-07-29T04:56:15;6.90;;;3.92;;
46322;SDS011;32044;52.386;13.278;2022-07-29T04:58:40;8.02;;;4.43;;
46322;SDS011;32044;52.386;13.278;2022-07-29T05:01:05;7.25;;;3.83;;
46322;SDS011;32044;52.386;13.278;2022-07-29T05:03:31;7.70;;;3.55;;
46322;SDS011;32044;52.386;13.278;2022-07-29T05:05:56;7.13;;;3.42;;
46322;SDS011;32044;52.386;13.278;2022-07-29T05:08:21;5.85;;;3.80;;
46322;SDS011;32044;52.386;13.278;2022-07-29T05:10:46;6.63;;;3.38;;
46322;SDS011;32044;52.386;13.278;2022-07-29T05:13:12;7.95;;;3.80;;
46322;SDS011;32044;52.386;13.278;2022-07-29T05:15:37;6.70;;;3.50;;
46322;SDS011;32044;52.386;13.278;2022-07-29T05:18:02;6.90;;;3.10;;
46322;SDS011;32044;52.386;13.278;2022-07-29T05:20:28;7.97;;;3.35;;
46322;SDS011;32044;52.386;13.278;2022-07-29T05:22:58;7.47;;;3.95;;
46322;SDS011;32044;52.386;13.278;2022-07-29T05:25:24;8.70;;;3.50;;
46322;SDS011;32044;52.386;13.278;2022-07-29T05:27:50;7.22;;;3.88;;
46322;SDS011;32044;52.386;13.278;2022-07-29T05:30:15;5.85;;;3.60;;
46322;SDS011;32044;52.386;13.278;2022-07-29T05:32:40;7.55;;;3.40;;
46322;SDS011;32044;52.386;13.278;2022-07-29T05:35:06;7.38;;;3.53;;
46322;SDS011;32044;52.386;13.278;2022-07-29T05:37:31;9.57;;;4.07;;
46322;SDS011;32044;52.386;13.278;2022-07-29T05:39:56;13.35;;;4.05;;
46322;SDS011;32044;52.386;13.278;2022-07-29T05:42:22;8.20;;;3.28;;
46322;SDS011;32044;52.386;13.278;2022-07-29T05:44:47;7.68;;;4.10;;
46322;SDS011;32044;52.386;13.278;2022-07-29T05:47:13;7.72;;;3.63;;
46322;SDS011;32044;52.386;13.278;2022-07-29T05:49:38;9.23;;;4.15;;
46322;SDS011;32044;52.386;13.278;2022-07-29T05:52:04;9.25;;;4.03;;
46322;SDS011;32044;52.386;13.278;2022-07-29T05:54:29;8.63;;;3.88;;
46322;SDS011;32044;52.386;13.278;2022-07-29T05:56:54;10.68;;;3.83;;
46322;SDS011;32044;52.386;13.278;2022-07-29T05:59:20;7.20;;;3.83;;
46322;SDS011;32044;52.386;13.278;2022-07-29T06:01:45;14.77;;;3.42;;
46322;SDS011;32044;52.386;13.278;2022-07-29T06:04:11;9.50;;;3.88;;
46322;SDS011;32044;52.386;13.278;2022-07-29T06:06:36;7.57;;;3.75;;
46322;SDS011;32044;52.386;13.278;2022-07-29T06:09:02;5.47;;;3.20;;
46322;SDS011;32044;52.386;13.278;2022-07-29T06:11:27;14.80;;;3.50;;
46322;SDS011;32044;52.386;13.278;2022-07-29T06:13:53;8.57;;;3.47;;
46322;SDS011;32044;52.386;13.278;2022-07-29T06:16:18;10.40;;;3.20;;
46322;SDS011;32044;52.386;13.278;2022-07-29T06:18:43;13.80;;;3.83;;
46322;SDS011;32044;52.386;13.278;2022-07-29T06:21:09;10.07;;;3.35;;
46322;SDS011;32044;52.386;13.278;2022-07-29T06:23:35;6.80;;;3.20;;
46322;SDS011;32044;52.386;13.278;2022-07-29T06:26:01;8.07;;;3.55;;
46322;SDS011;32044;52.386;13.278;2022-07-29T06:28:26;8.98;;;3.42;;
46322;SDS011;32044;52.386;13.278;2022-07-29T06:30:52;7.40;;;3.35;;
46322;SDS011;32044;52.386;13.278;2022-07-29T06:33:18;7.60;;;3.38;;
46322;SDS011;32044;52.386;13.278;2022-07-29T06:35:43;7.30;;;3.65;;
46322;SDS011;32044;52.386;13.278;2022-07-29T06:38:09;5.18;;;3.00;;
46322;SDS011;32044;52.386;13.278;2022-07-29T06:40:36;7.25;;;3.05;;
46322;SDS011;32044;52.386;13.278;2022-07-29T06:43:20;9.63;;;3.25;;
46322;SDS011;32044;52.386;13.278;2022-07-29T06:45:45;7.47;;;2.80;;
46322;SDS011;32044;52.386;13.278;2022-07-29T06:48:11;8.77;;;2.88;;
46322;SDS011;32044;52.386;13.278;2022-07-29T06:50:36;7.78;;;3.00;;
46322;SDS011;32044;52.386;13.278;2022-07-29T06:53:01;8.23;;;2.92;;
46322;SDS011;32044;52.386;13.278;2022-07-29T06:55:27;6.20;;;2.90;;
46322;SDS011;32044;52.386;13.278;2022-07-29T06:57:52;6.38;;;2.97;;
46322;SDS011;32044;52.386;13.278;2022-07-29T07:00:17;10.32;;;3.38;;
46322;SDS011;32044;52.386;13.278;2022-07-29T07:02:42;7.95;;;3.38;;
46322;SDS011;32044;52.386;13.278;2022-07-29T07:05:08;6.53;;;2.47;;
46322;SDS011;32044;52.386;13.278;2022-07-29T07:07:33;12.38;;;3.05;;
46322;SDS011;32044;52.386;13.278;2022-07-29T07:09:58;5.35;;;2.65;;
46322;SDS011;32044;52.386;13.278;2022-07-29T07:12:24;10.93;;;3.30;;
46322;SDS011;32044;52.386;13.278;2022-07-29T07:14:50;9.38;;;2.72;;
46322;SDS011;32044;52.386;13.278;2022-07-29T07:17:15;6.72;;;3.00;;
46322;SDS011;32044;52.386;13.278;2022-07-29T07:19:40;5.93;;;2.92;;
46322;SDS011;32044;52.386;13.278;2022-07-29T07:22:05;7.97;;;3.00;;
46322;SDS011;32044;52.386;13.278;2022-07-29T07:24:31;9.85;;;2.90;;
46322;SDS011;32044;52.386;13.278;2022-07-29T07:26:56;6.13;;;2.88;;
46322;SDS011;32044;52.386;13.278;2022-07-29T07:29:22;8.05;;;2.63;;
46322;SDS011;32044;52.386;13.278;2022-07-29T07:31:47;7.22;;;3.05;;
46322;SDS011;32044;52.386;13.278;2022-07-29T07:34:13;7.95;;;3.58;;
46322;SDS011;32044;52.386;13.278;2022-07-29T07:36:38;8.77;;;2.67;;
46322;SDS011;32044;52.386;13.278;2022-07-29T07:39:03;9.40;;;2.67;;
46322;SDS011;32044;52.386;13.278;2022-07-29T07:41:30;5.60;;;2.58;;
46322;SDS011;32044;52.386;13.278;2022-07-29T07:43:55;7.30;;;2.40;;
46322;SDS011;32044;52.386;13.278;2022-07-29T07:46:20;5.32;;;2.17;;
46322;SDS011;32044;52.386;13.278;2022-07-29T07:48:46;7.82;;;2.33;;
46322;SDS011;32044;52.386;13.278;2022-07-29T07:51:11;4.65;;;2.40;;
46322;SDS011;32044;52.386;13.278;2022-07-29T07:53:36;6.50;;;2.30;;
46322;SDS011;32044;52.386;13.278;2022-07-29T07:56:02;8.13;;;3.00;;
46322;SDS011;32044;52.386;13.278;2022-07-29T07:58:27;7.50;;;2.70;;
46322;SDS011;32044;52.386;13.278;2022-07-29T08:00:52;9.55;;;2.60;;
46322;SDS011;32044;52.386;13.278;2022-07-29T08:03:18;3.53;;;2.17;;
46322;SDS011;32044;52.386;13.278;2022-07-29T08:05:43;7.40;;;2.28;;
46322;SDS011;32044;52.386;13.278;2022-07-29T08:08:08;10.32;;;2.60;;
46322;SDS011;32044;52.386;13.278;2022-07-29T08:10:34;6.97;;;2.13;;
46322;SDS011;32044;52.386;13.278;2022-07-29T08:13:17;8.13;;;2.40;;
46322;SDS011;32044;52.386;13.278;2022-07-29T08:15:43;4.90;;;2.25;;
46322;SDS011;32044;52.386;13.278;2022-07-29T08:18:10;7.55;;;2.47;;
46322;SDS011;32044;52.386;13.278;2022-07-29T08:20:36;5.13;;;2.23;;
46322;SDS011;32044;52.386;13.278;2022-07-29T08:23:04;6.55;;;2.10;;
46322;SDS011;32044;52.386;13.278;2022-07-29T08:25:31;3.78;;;1.83;;
46322;SDS011;32044;52.386;13.278;2022-07-29T08:27:57;9.90;;;2.08;;
46322;SDS011;32044;52.386;13.278;2022-07-29T08:30:22;7.13;;;2.50;;
46322;SDS011;32044;52.386;13.278;2022-07-29T08:32:47;5.45;;;2.08;;
46322;SDS011;32044;52.386;13.278;2022-07-29T08:35:13;4.82;;;2.38;;
46322;SDS011;32044;52.386;13.278;2022-07-29T08:37:38;5.82;;;1.85;;
46322;SDS011;32044;52.386;13.278;2022-07-29T08:40:04;5.17;;;2.20;;
46322;SDS011;32044;52.386;13.278;2022-07-29T08:42:31;6.88;;;2.20;;
46322;SDS011;32044;52.386;13.278;2022-07-29T08:44:56;6.15;;;2.20;;
46322;SDS011;32044;52.386;13.278;2022-07-29T08:47:21;9.88;;;2.35;;
46322;SDS011;32044;52.386;13.278;2022-07-29T08:49:47;6.57;;;2.25;;
46322;SDS011;32044;52.386;13.278;2022-07-29T08:52:13;7.63;;;2.15;;
46322;SDS011;32044;52.386;13.278;2022-07-29T08:54:39;6.35;;;2.40;;
46322;SDS011;32044;52.386;13.278;2022-07-29T08:57:04;9.85;;;2.67;;
46322;SDS011;32044;52.386;13.278;2022-07-29T08:59:30;6.18;;;2.53;;
46322;SDS011;32044;52.386;13.278;2022-07-29T09:01:59;7.75;;;2.17;;
46322;SDS011;32044;52.386;13.278;2022-07-29T09:04:25;8.65;;;2.30;;
46322;SDS011;32044;52.386;13.278;2022-07-29T09:06:52;5.13;;;1.92;;
46322;SDS011;32044;52.386;13.278;2022-07-29T09:09:19;5.18;;;2.25;;
46322;SDS011;32044;52.386;13.278;2022-07-29T09:11:44;2.90;;;2.20;;
46322;SDS011;32044;52.386;13.278;2022-07-29T09:14:13;6.18;;;2.03;;
46322;SDS011;32044;52.386;13.278;2022-07-29T09:16:45;6.00;;;2.40;;
46322;SDS011;32044;52.386;13.278;2022-07-29T09:19:19;9.45;;;2.28;;
46322;SDS011;32044;52.386;13.278;2022-07-29T09:21:45;4.90;;;1.88;;
46322;SDS011;32044;52.386;13.278;2022-07-29T09:24:23;4.57;;;2.13;;
46322;SDS011;32044;52.386;13.278;2022-07-29T09:26:48;3.92;;;2.05;;
46322;SDS011;32044;52.386;13.278;2022-07-29T09:29:15;8.30;;;2.40;;
46322;SDS011;32044;52.386;13.278;2022-07-29T09:31:42;8.43;;;2.35;;
46322;SDS011;32044;52.386;13.278;2022-07-29T09:34:12;6.30;;;1.80;;
46322;SDS011;32044;52.386;13.278;2022-07-29T09:36:40;4.18;;;1.70;;
46322;SDS011;32044;52.386;13.278;2022-07-29T09:39:09;3.57;;;2.00;;
46322;SDS011;32044;52.386;13.278;2022-07-29T09:41:45;6.90;;;2.20;;
46322;SDS011;32044;52.386;13.278;2022-07-29T09:44:11;5.88;;;2.03;;
46322;SDS011;32044;52.386;13.278;2022-07-29T09:46:36;3.35;;;2.00;;
46322;SDS011;32044;52.386;13.278;2022-07-29T09:51:37;5.95;;;1.85;;
46322;SDS011;32044;52.386;13.278;2022-07-29T09:54:21;4.63;;;1.95;;
46322;SDS011;32044;52.386;13.278;2022-07-29T09:56:48;5.55;;;2.00;;
46322;SDS011;32044;52.386;13.278;2022-07-29T09:59:14;5.35;;;1.80;;
46322;SDS011;32044;52.386;13.278;2022-07-29T10:01:39;3.70;;;1.90;;
46322;SDS011;32044;52.386;13.278;2022-07-29T10:04:04;4.50;;;1.65;;
46322;SDS011;32044;52.386;13.278;2022-07-29T10:06:30;6.40;;;1.65;;
46322;SDS011;32044;52.386;13.278;2022-07-29T10:09:06;5.18;;;1.90;;
46322;SDS011;32044;52.386;13.278;2022-07-29T10:11:34;4.18;;;1.88;;
46322;SDS011;32044;52.386;13.278;2022-07-29T10:14:01;3.45;;;1.60;;
46322;SDS011;32044;52.386;13.278;2022-07-29T10:16:27;3.50;;;1.92;;
46322;SDS011;32044;52.386;13.278;2022-07-29T10:18:57;7.70;;;2.00;;
46322;SDS011;32044;52.386;13.278;2022-07-29T10:21:23;4.75;;;2.00;;
46322;SDS011;32044;52.386;13.278;2022-07-29T10:23:49;5.47;;;1.60;;
46322;SDS011;32044;52.386;13.278;2022-07-29T10:26:15;4.00;;;1.65;;
46322;SDS011;32044;52.386;13.278;2022-07-29T10:28:40;4.65;;;1.83;;
46322;SDS011;32044;52.386;13.278;2022-07-29T10:31:06;6.55;;;1.90;;
46322;SDS011;32044;52.386;13.278;2022-07-29T10:36:40;6.72;;;1.75;;
46322;SDS011;32044;52.386;13.278;2022-07-29T10:41:56;6.70;;;2.10;;
46322;SDS011;32044;52.386;13.278;2022-07-29T10:44:27;3.33;;;1.77;;
46322;SDS011;32044;52.386;13.278;2022-07-29T10:46:52;2.33;;;1.83;;
46322;SDS011;32044;52.386;13.278;2022-07-29T10:49:19;3.65;;;1.90;;
46322;SDS011;32044;52.386;13.278;2022-07-29T10:52:04;5.15;;;2.45;;
46322;SDS011;32044;52.386;13.278;2022-07-29T10:57:13;5.30;;;2.30;;
46322;SDS011;32044;52.386;13.278;2022-07-29T10:59:39;5.72;;;1.80;;
46322;SDS011;32044;52.386;13.278;2022-07-29T11:05:05;5.88;;;2.30;;
46322;SDS011;32044;52.386;13.278;2022-07-29T11:07:31;4.82;;;2.25;;
46322;SDS011;32044;52.386;13.278;2022-07-29T11:15:01;6.35;;;1.90;;
46322;SDS011;32044;52.386;13.278;2022-07-29T11:23:18;5.00;;;2.30;;
46322;SDS011;32044;52.386;13.278;2022-07-29T11:26:30;4.82;;;2.25;;
46322;SDS011;32044;52.386;13.278;2022-07-29T11:31:37;5.22;;;2.78;;
46322;SDS011;32044;52.386;13.278;2022-07-29T11:44:57;8.18;;;2.53;;
46322;SDS011;32044;52.386;13.278;2022-07-29T11:47:39;4.55;;;2.50;;
46322;SDS011;32044;52.386;13.278;2022-07-29T11:50:07;4.28;;;2.53;;
46322;SDS011;32044;52.386;13.278;2022-07-29T11:52:36;6.13;;;3.17;;
46322;SDS011;32044;52.386;13.278;2022-07-29T11:55:08;4.78;;;2.60;;
46322;SDS011;32044;52.386;13.278;2022-07-29T11:57:34;7.10;;;2.38;;
46322;SDS011;32044;52.386;13.278;2022-07-29T12:00:00;5.82;;;2.47;;
46322;SDS011;32044;52.386;13.278;2022-07-29T12:02:26;9.68;;;2.92;;
46322;SDS011;32044;52.386;13.278;2022-07-29T12:05:03;4.13;;;2.60;;
46322;SDS011;32044;52.386;13.278;2022-07-29T12:07:29;4.93;;;2.65;;
46322;SDS011;32044;52.386;13.278;2022-07-29T12:09:58;10.55;;;2.17;;
46322;SDS011;32044;52.386;13.278;2022-07-29T12:12:24;4.43;;;2.35;;
46322;SDS011;32044;52.386;13.278;2022-07-29T12:14:49;6.82;;;2.65;;
46322;SDS011;32044;52.386;13.278;2022-07-29T12:17:33;4.70;;;2.50;;
46322;SDS011;32044;52.386;13.278;2022-07-29T12:20:00;2.50;;;2.08;;
46322;SDS011;32044;52.386;13.278;2022-07-29T12:22:35;4.38;;;2.35;;
46322;SDS011;32044;52.386;13.278;2022-07-29T12:25:06;4.53;;;2.55;;
46322;SDS011;32044;52.386;13.278;2022-07-29T12:27:34;3.92;;;2.47;;
46322;SDS011;32044;52.386;13.278;2022-07-29T12:30:00;8.52;;;2.50;;
46322;SDS011;32044;52.386;13.278;2022-07-29T12:32:33;3.65;;;2.40;;
46322;SDS011;32044;52.386;13.278;2022-07-29T12:35:19;6.47;;;2.85;;
46322;SDS011;32044;52.386;13.278;2022-07-29T12:37:45;3.65;;;2.25;;
46322;SDS011;32044;52.386;13.278;2022-07-29T12:40:13;5.95;;;2.42;;
46322;SDS011;32044;52.386;13.278;2022-07-29T12:42:41;5.80;;;2.63;;
46322;SDS011;32044;52.386;13.278;2022-07-29T12:45:29;5.82;;;2.70;;
46322;SDS011;32044;52.386;13.278;2022-07-29T12:47:55;8.20;;;2.60;;
46322;SDS011;32044;52.386;13.278;2022-07-29T12:50:21;6.47;;;2.67;;
46322;SDS011;32044;52.386;13.278;2022-07-29T12:52:46;6.78;;;2.60;;
46322;SDS011;32044;52.386;13.278;2022-07-29T12:55:12;3.47;;;2.50;;
46322;SDS011;32044;52.386;13.278;2022-07-29T12:57:44;7.38;;;2.85;;
46322;SDS011;32044;52.386;13.278;2022-07-29T13:00:14;5.55;;;2.80;;
46322;SDS011;32044;52.386;13.278;2022-07-29T13:02:40;5.13;;;2.67;;
46322;SDS011;32044;52.386;13.278;2022-07-29T13:05:08;5.32;;;2.60;;
46322;SDS011;32044;52.386;13.278;2022-07-29T13:07:34;5.60;;;2.50;;
46322;SDS011;32044;52.386;13.278;2022-07-29T13:10:14;4.20;;;2.55;;
46322;SDS011;32044;52.386;13.278;2022-07-29T13:15:33;7.47;;;3.20;;
46322;SDS011;32044;52.386;13.278;2022-07-29T13:17:58;4.57;;;2.40;;
46322;SDS011;32044;52.386;13.278;2022-07-29T13:20:25;7.95;;;3.00;;
46322;SDS011;32044;52.386;13.278;2022-07-29T13:22:52;5.95;;;2.45;;
46322;SDS011;32044;52.386;13.278;2022-07-29T13:25:24;7.15;;;2.55;;
46322;SDS011;32044;52.386;13.278;2022-07-29T13:27:51;3.58;;;2.67;;
46322;SDS011;32044;52.386;13.278;2022-07-29T13:30:16;5.70;;;3.05;;
46322;SDS011;32044;52.386;13.278;2022-07-29T13:32:41;3.37;;;1.90;;
46322;SDS011;32044;52.386;13.278;2022-07-29T13:35:07;4.78;;;2.50;;
46322;SDS011;32044;52.386;13.278;2022-07-29T13:37:33;6.07;;;2.20;;
46322;SDS011;32044;52.386;13.278;2022-07-29T13:40:03;8.38;;;2.50;;
46322;SDS011;32044;52.386;13.278;2022-07-29T13:42:29;5.22;;;2.80;;
46322;SDS011;32044;52.386;13.278;2022-07-29T13:44:55;7.35;;;2.72;;
46322;SDS011;32044;52.386;13.278;2022-07-29T13:47:20;6.37;;;2.50;;
46322;SDS011;32044;52.386;13.278;2022-07-29T13:49:46;3.30;;;2.42;;
46322;SDS011;32044;52.386;13.278;2022-07-29T13:52:11;4.93;;;2.70;;
46322;SDS011;32044;52.386;13.278;2022-07-29T13:54:36;4.88;;;2.85;;
46322;SDS011;32044;52.386;13.278;2022-07-29T13:57:03;4.10;;;2.60;;
46322;SDS011;32044;52.386;13.278;2022-07-29T13:59:29;4.25;;;2.33;;
46322;SDS011;32044;52.386;13.278;2022-07-29T14:01:54;9.25;;;3.10;;
46322;SDS011;32044;52.386;13.278;2022-07-29T14:04:19;4.53;;;2.30;;
46322;SDS011;32044;52.386;13.278;2022-07-29T14:06:45;7.53;;;2.60;;
46322;SDS011;32044;52.386;13.278;2022-07-29T14:09:10;4.80;;;2.25;;
46322;SDS011;32044;52.386;13.278;2022-07-29T14:11:35;2.97;;;2.23;;
46322;SDS011;32044;52.386;13.278;2022-07-29T14:14:03;2.92;;;2.40;;
46322;SDS011;32044;52.386;13.278;2022-07-29T14:16:28;3.92;;;2.58;;
46322;SDS011;32044;52.386;13.278;2022-07-29T14:18:53;4.30;;;2.38;;
46322;SDS011;32044;52.386;13.278;2022-07-29T14:21:19;3.60;;;2.40;;
46322;SDS011;32044;52.386;13.278;2022-07-29T14:23:44;4.90;;;2.28;;
46322;SDS011;32044;52.386;13.278;2022-07-29T14:26:09;6.47;;;2.20;;
46322;SDS011;32044;52.386;13.278;2022-07-29T14:28:35;3.10;;;2.33;;
46322;SDS011;32044;52.386;13.278;2022-07-29T14:31:00;4.80;;;2.60;;
46322;SDS011;32044;52.386;13.278;2022-07-29T14:33:25;4.10;;;2.23;;
46322;SDS011;32044;52.386;13.278;2022-07-29T14:35:51;2.92;;;2.30;;
46322;SDS011;32044;52.386;13.278;2022-07-29T14:38:16;4.10;;;2.20;;
46322;SDS011;32044;52.386;13.278;2022-07-29T14:40:41;4.25;;;2.08;;
46322;SDS011;32044;52.386;13.278;2022-07-29T14:43:06;4.95;;;2.05;;
46322;SDS011;32044;52.386;13.278;2022-07-29T14:45:32;4.03;;;2.10;;
46322;SDS011;32044;52.386;13.278;2022-07-29T14:47:57;3.65;;;2.10;;
46322;SDS011;32044;52.386;13.278;2022-07-29T14:50:22;7.65;;;2.50;;
46322;SDS011;32044;52.386;13.278;2022-07-29T14:52:48;5.63;;;2.30;;
46322;SDS011;32044;52.386;13.278;2022-07-29T14:55:13;5.35;;;2.63;;
46322;SDS011;32044;52.386;13.278;2022-07-29T14:57:38;3.63;;;2.20;;
46322;SDS011;32044;52.386;13.278;2022-07-29T15:00:04;4.68;;;2.33;;
46322;SDS011;32044;52.386;13.278;2022-07-29T15:02:31;5.45;;;2.42;;
46322;SDS011;32044;52.386;13.278;2022-07-29T15:04:57;5.82;;;2.42;;
46322;SDS011;32044;52.386;13.278;2022-07-29T15:07:22;7.05;;;2.50;;
46322;SDS011;32044;52.386;13.278;2022-07-29T15:09:47;2.97;;;2.08;;
46322;SDS011;32044;52.386;13.278;2022-07-29T15:12:13;5.17;;;2.20;;
46322;SDS011;32044;52.386;13.278;2022-07-29T15:14:38;2.97;;;2.17;;
46322;SDS011;32044;52.386;13.278;2022-07-29T15:17:03;7.00;;;3.03;;
46322;SDS011;32044;52.386;13.278;2022-07-29T15:19:29;6.13;;;2.10;;
46322;SDS011;32044;52.386;13.278;2022-07-29T15:21:54;5.00;;;2.50;;
46322;SDS011;32044;52.386;13.278;2022-07-29T15:24:19;4.32;;;2.25;;
46322;SDS011;32044;52.386;13.278;2022-07-29T15:26:45;3.45;;;2.10;;
46322;SDS011;32044;52.386;13.278;2022-07-29T15:29:10;3.95;;;2.20;;
46322;SDS011;32044;52.386;13.278;2022-07-29T15:31:36;4.47;;;2.50;;